sensor_id;sensor_type;location;lat;lon;timestamp;P1;durP1;ratioP1;P2;durP2;ratioP2
58896;SDS011;44677;52.378;10.400;2023-10-09T00:00:11;2.70;;;1.70;;
58896;SDS011;44677;52.378;10.400;2023-10-09T00:02:56;5.00;;;1.90;;
58896;SDS011;44677;52.378;10.400;2023-10-09T00:05:26;3.80;;;1.60;;
58896;SDS011;44677;52.378;10.400;2023-10-09T00:08:05;4.30;;;1.80;;
58896;SDS011;44677;52.378;10.400;2023-10-09T00:10:34;3.30;;;1.60;;
58896;SDS011;44677;52.378;10.400;2023-10-09T00:13:01;4.20;;;1.80;;
58896;SDS011;44677;52.378;10.400;2023-10-09T00:15:28;5.20;;;2.00;;
58896;SDS011;44677;52.378;10.400;2023-10-09T00:17:58;3.30;;;1.90;;
58896;SDS011;44677;52.378;10.400;2023-10-09T00:20:23;2.10;;;1.50;;
58896;SDS011;44677;52.378;10.400;2023-10-09T00:23:02;2.30;;;1.60;;
58896;SDS011;44677;52.378;10.400;2023-10-09T00:25:31;3.60;;;1.60;;
58896;SDS011;44677;52.378;10.400;2023-10-09T00:28:01;4.60;;;2.00;;
58896;SDS011;44677;52.378;10.400;2023-10-09T00:30:43;5.20;;;2.10;;
58896;SDS011;44677;52.378;10.400;2023-10-09T00:33:09;4.90;;;1.90;;
58896;SDS011;44677;52.378;10.400;2023-10-09T00:35:37;5.00;;;2.10;;
58896;SDS011;44677;52.378;10.400;2023-10-09T00:38:09;3.50;;;1.70;;
58896;SDS011;44677;52.378;10.400;2023-10-09T00:40:47;3.70;;;1.80;;
58896;SDS011;44677;52.378;10.400;2023-10-09T00:43:21;3.60;;;1.90;;
58896;SDS011;44677;52.378;10.400;2023-10-09T00:45:53;2.50;;;1.90;;
58896;SDS011;44677;52.378;10.400;2023-10-09T00:48:19;2.50;;;1.90;;
58896;SDS011;44677;52.378;10.400;2023-10-09T00:50:56;2.80;;;1.90;;
58896;SDS011;44677;52.378;10.400;2023-10-09T00:53:25;2.50;;;1.40;;
58896;SDS011;44677;52.378;10.400;2023-10-09T00:56:00;3.30;;;1.70;;
58896;SDS011;44677;52.378;10.400;2023-10-09T00:58:45;3.70;;;2.50;;
58896;SDS011;44677;52.378;10.400;2023-10-09T01:01:12;2.20;;;1.60;;
58896;SDS011;44677;52.378;10.400;2023-10-09T01:03:41;3.00;;;1.70;;
58896;SDS011;44677;52.378;10.400;2023-10-09T01:06:09;3.20;;;1.40;;
58896;SDS011;44677;52.378;10.400;2023-10-09T01:08:35;5.30;;;1.90;;
58896;SDS011;44677;52.378;10.400;2023-10-09T01:11:06;4.60;;;1.90;;
58896;SDS011;44677;52.378;10.400;2023-10-09T01:13:35;3.70;;;1.60;;
58896;SDS011;44677;52.378;10.400;2023-10-09T01:16:17;2.90;;;1.70;;
58896;SDS011;44677;52.378;10.400;2023-10-09T01:18:49;6.40;;;1.80;;
58896;SDS011;44677;52.378;10.400;2023-10-09T01:21:17;4.30;;;2.00;;
58896;SDS011;44677;52.378;10.400;2023-10-09T01:23:46;4.90;;;1.90;;
58896;SDS011;44677;52.378;10.400;2023-10-09T01:26:27;4.20;;;1.90;;
58896;SDS011;44677;52.378;10.400;2023-10-09T01:28:55;3.10;;;2.10;;
58896;SDS011;44677;52.378;10.400;2023-10-09T01:31:23;2.60;;;1.70;;
58896;SDS011;44677;52.378;10.400;2023-10-09T01:33:52;2.10;;;1.80;;
58896;SDS011;44677;52.378;10.400;2023-10-09T01:36:19;2.70;;;1.60;;
58896;SDS011;44677;52.378;10.400;2023-10-09T01:38:58;3.30;;;1.90;;
58896;SDS011;44677;52.378;10.400;2023-10-09T01:41:33;4.60;;;1.80;;
58896;SDS011;44677;52.378;10.400;2023-10-09T01:46:35;2.10;;;1.80;;
58896;SDS011;44677;52.378;10.400;2023-10-09T01:49:01;4.30;;;1.50;;
58896;SDS011;44677;52.378;10.400;2023-10-09T01:51:33;2.20;;;1.60;;
58896;SDS011;44677;52.378;10.400;2023-10-09T01:54:02;3.20;;;2.00;;
58896;SDS011;44677;52.378;10.400;2023-10-09T01:56:27;2.50;;;1.80;;
58896;SDS011;44677;52.378;10.400;2023-10-09T01:58:53;1.80;;;1.70;;
58896;SDS011;44677;52.378;10.400;2023-10-09T02:01:22;1.90;;;1.70;;
58896;SDS011;44677;52.378;10.400;2023-10-09T02:03:49;2.60;;;1.90;;
58896;SDS011;44677;52.378;10.400;2023-10-09T02:06:17;1.80;;;1.60;;
58896;SDS011;44677;52.378;10.400;2023-10-09T02:08:52;3.20;;;1.60;;
58896;SDS011;44677;52.378;10.400;2023-10-09T02:11:19;3.40;;;1.90;;
58896;SDS011;44677;52.378;10.400;2023-10-09T02:14:05;2.80;;;1.80;;
58896;SDS011;44677;52.378;10.400;2023-10-09T02:16:44;3.00;;;1.60;;
58896;SDS011;44677;52.378;10.400;2023-10-09T02:19:27;2.50;;;1.50;;
58896;SDS011;44677;52.378;10.400;2023-10-09T02:22:00;4.00;;;1.30;;
58896;SDS011;44677;52.378;10.400;2023-10-09T02:24:31;2.20;;;1.70;;
58896;SDS011;44677;52.378;10.400;2023-10-09T02:27:16;3.40;;;1.80;;
58896;SDS011;44677;52.378;10.400;2023-10-09T02:30:00;3.30;;;1.60;;
58896;SDS011;44677;52.378;10.400;2023-10-09T02:32:34;2.30;;;1.50;;
58896;SDS011;44677;52.378;10.400;2023-10-09T02:35:01;4.20;;;2.10;;
58896;SDS011;44677;52.378;10.400;2023-10-09T02:37:35;3.60;;;1.70;;
58896;SDS011;44677;52.378;10.400;2023-10-09T02:40:03;3.40;;;1.50;;
58896;SDS011;44677;52.378;10.400;2023-10-09T02:42:33;2.20;;;1.60;;
58896;SDS011;44677;52.378;10.400;2023-10-09T02:44:59;3.40;;;1.70;;
58896;SDS011;44677;52.378;10.400;2023-10-09T02:47:26;3.20;;;2.00;;
58896;SDS011;44677;52.378;10.400;2023-10-09T02:49:56;4.50;;;1.90;;
58896;SDS011;44677;52.378;10.400;2023-10-09T02:52:45;2.40;;;1.80;;
58896;SDS011;44677;52.378;10.400;2023-10-09T02:55:15;1.90;;;1.80;;
58896;SDS011;44677;52.378;10.400;2023-10-09T02:57:50;2.40;;;1.40;;
58896;SDS011;44677;52.378;10.400;2023-10-09T03:00:29;2.10;;;1.60;;
58896;SDS011;44677;52.378;10.400;2023-10-09T03:02:56;2.70;;;1.60;;
58896;SDS011;44677;52.378;10.400;2023-10-09T03:05:26;3.10;;;1.80;;
58896;SDS011;44677;52.378;10.400;2023-10-09T03:07:55;5.50;;;1.60;;
58896;SDS011;44677;52.378;10.400;2023-10-09T03:10:22;2.40;;;1.70;;
58896;SDS011;44677;52.378;10.400;2023-10-09T03:15:17;4.50;;;2.00;;
58896;SDS011;44677;52.378;10.400;2023-10-09T03:17:44;1.90;;;1.80;;
58896;SDS011;44677;52.378;10.400;2023-10-09T03:20:10;4.00;;;2.00;;
58896;SDS011;44677;52.378;10.400;2023-10-09T03:22:39;2.60;;;1.70;;
58896;SDS011;44677;52.378;10.400;2023-10-09T03:25:08;2.00;;;1.60;;
58896;SDS011;44677;52.378;10.400;2023-10-09T03:27:39;5.10;;;2.00;;
58896;SDS011;44677;52.378;10.400;2023-10-09T03:30:08;5.70;;;1.80;;
58896;SDS011;44677;52.378;10.400;2023-10-09T03:32:35;2.80;;;1.60;;
58896;SDS011;44677;52.378;10.400;2023-10-09T03:35:01;5.90;;;1.90;;
58896;SDS011;44677;52.378;10.400;2023-10-09T03:37:28;2.60;;;2.00;;
58896;SDS011;44677;52.378;10.400;2023-10-09T03:40:00;3.00;;;1.90;;
58896;SDS011;44677;52.378;10.400;2023-10-09T03:42:26;4.50;;;2.00;;
58896;SDS011;44677;52.378;10.400;2023-10-09T03:44:51;2.80;;;1.70;;
58896;SDS011;44677;52.378;10.400;2023-10-09T03:47:22;2.90;;;1.30;;
58896;SDS011;44677;52.378;10.400;2023-10-09T03:49:51;3.70;;;1.60;;
58896;SDS011;44677;52.378;10.400;2023-10-09T03:52:18;2.80;;;1.90;;
58896;SDS011;44677;52.378;10.400;2023-10-09T03:54:44;2.80;;;2.20;;
58896;SDS011;44677;52.378;10.400;2023-10-09T03:57:14;3.20;;;1.90;;
58896;SDS011;44677;52.378;10.400;2023-10-09T03:59:47;5.00;;;2.10;;
58896;SDS011;44677;52.378;10.400;2023-10-09T04:02:13;3.20;;;2.00;;
58896;SDS011;44677;52.378;10.400;2023-10-09T04:04:40;2.50;;;2.00;;
58896;SDS011;44677;52.378;10.400;2023-10-09T04:07:11;2.90;;;1.80;;
58896;SDS011;44677;52.378;10.400;2023-10-09T04:09:36;4.20;;;2.40;;
58896;SDS011;44677;52.378;10.400;2023-10-09T04:12:05;2.40;;;1.90;;
58896;SDS011;44677;52.378;10.400;2023-10-09T04:14:36;3.50;;;2.20;;
58896;SDS011;44677;52.378;10.400;2023-10-09T04:17:12;2.80;;;2.00;;
58896;SDS011;44677;52.378;10.400;2023-10-09T04:19:47;4.50;;;2.20;;
58896;SDS011;44677;52.378;10.400;2023-10-09T04:22:32;2.10;;;1.80;;
58896;SDS011;44677;52.378;10.400;2023-10-09T04:25:04;2.70;;;2.00;;
58896;SDS011;44677;52.378;10.400;2023-10-09T04:27:33;2.60;;;2.00;;
58896;SDS011;44677;52.378;10.400;2023-10-09T04:30:02;2.90;;;2.10;;
58896;SDS011;44677;52.378;10.400;2023-10-09T04:32:28;4.50;;;1.80;;
58896;SDS011;44677;52.378;10.400;2023-10-09T04:34:54;4.10;;;2.10;;
58896;SDS011;44677;52.378;10.400;2023-10-09T04:37:42;4.60;;;2.50;;
58896;SDS011;44677;52.378;10.400;2023-10-09T04:40:10;3.70;;;2.10;;
58896;SDS011;44677;52.378;10.400;2023-10-09T04:42:40;4.50;;;2.40;;
58896;SDS011;44677;52.378;10.400;2023-10-09T04:45:14;4.00;;;2.20;;
58896;SDS011;44677;52.378;10.400;2023-10-09T04:47:39;4.30;;;2.70;;
58896;SDS011;44677;52.378;10.400;2023-10-09T04:50:15;3.00;;;2.40;;
58896;SDS011;44677;52.378;10.400;2023-10-09T04:52:43;4.30;;;2.50;;
58896;SDS011;44677;52.378;10.400;2023-10-09T04:55:09;4.50;;;2.20;;
58896;SDS011;44677;52.378;10.400;2023-10-09T04:57:41;4.30;;;2.10;;
58896;SDS011;44677;52.378;10.400;2023-10-09T05:00:08;3.50;;;2.20;;
58896;SDS011;44677;52.378;10.400;2023-10-09T05:02:56;3.60;;;2.70;;
58896;SDS011;44677;52.378;10.400;2023-10-09T05:05:25;3.20;;;2.30;;
58896;SDS011;44677;52.378;10.400;2023-10-09T05:08:15;3.80;;;2.60;;
58896;SDS011;44677;52.378;10.400;2023-10-09T05:10:45;4.30;;;2.50;;
58896;SDS011;44677;52.378;10.400;2023-10-09T05:13:29;5.10;;;2.30;;
58896;SDS011;44677;52.378;10.400;2023-10-09T05:16:07;5.20;;;2.40;;
58896;SDS011;44677;52.378;10.400;2023-10-09T05:18:51;5.60;;;2.50;;
58896;SDS011;44677;52.378;10.400;2023-10-09T05:21:24;7.70;;;2.60;;
58896;SDS011;44677;52.378;10.400;2023-10-09T05:23:56;5.50;;;2.60;;
58896;SDS011;44677;52.378;10.400;2023-10-09T05:26:46;4.70;;;2.60;;
58896;SDS011;44677;52.378;10.400;2023-10-09T05:29:13;5.00;;;2.50;;
58896;SDS011;44677;52.378;10.400;2023-10-09T05:34:25;4.40;;;2.50;;
58896;SDS011;44677;52.378;10.400;2023-10-09T05:37:06;3.40;;;2.50;;
58896;SDS011;44677;52.378;10.400;2023-10-09T05:39:53;7.80;;;2.90;;
58896;SDS011;44677;52.378;10.400;2023-10-09T05:45:24;3.10;;;2.70;;
58896;SDS011;44677;52.378;10.400;2023-10-09T05:48:09;5.50;;;3.10;;
58896;SDS011;44677;52.378;10.400;2023-10-09T05:50:43;4.30;;;3.00;;
58896;SDS011;44677;52.378;10.400;2023-10-09T05:53:38;6.30;;;3.00;;
58896;SDS011;44677;52.378;10.400;2023-10-09T05:56:09;6.70;;;3.20;;
58896;SDS011;44677;52.378;10.400;2023-10-09T05:59:13;5.80;;;3.00;;
58896;SDS011;44677;52.378;10.400;2023-10-09T06:02:17;4.70;;;3.10;;
58896;SDS011;44677;52.378;10.400;2023-10-09T06:05:02;7.10;;;3.50;;
58896;SDS011;44677;52.378;10.400;2023-10-09T06:07:44;5.10;;;3.30;;
58896;SDS011;44677;52.378;10.400;2023-10-09T06:10:29;5.40;;;3.50;;
58896;SDS011;44677;52.378;10.400;2023-10-09T06:13:05;5.20;;;3.80;;
58896;SDS011;44677;52.378;10.400;2023-10-09T06:15:37;6.50;;;3.50;;
58896;SDS011;44677;52.378;10.400;2023-10-09T06:18:15;6.30;;;4.30;;
58896;SDS011;44677;52.378;10.400;2023-10-09T06:20:58;6.90;;;4.50;;
58896;SDS011;44677;52.378;10.400;2023-10-09T06:23:42;9.20;;;5.20;;
58896;SDS011;44677;52.378;10.400;2023-10-09T06:26:26;8.70;;;4.80;;
58896;SDS011;44677;52.378;10.400;2023-10-09T06:28:52;10.00;;;5.90;;
58896;SDS011;44677;52.378;10.400;2023-10-09T06:31:42;15.70;;;9.20;;
58896;SDS011;44677;52.378;10.400;2023-10-09T06:34:23;21.40;;;11.40;;
58896;SDS011;44677;52.378;10.400;2023-10-09T06:36:58;23.20;;;13.00;;
58896;SDS011;44677;52.378;10.400;2023-10-09T06:39:33;27.20;;;14.80;;
58896;SDS011;44677;52.378;10.400;2023-10-09T06:42:35;28.30;;;14.70;;
58896;SDS011;44677;52.378;10.400;2023-10-09T06:45:04;30.10;;;15.70;;
58896;SDS011;44677;52.378;10.400;2023-10-09T06:47:41;28.10;;;15.80;;
58896;SDS011;44677;52.378;10.400;2023-10-09T06:50:18;33.20;;;17.00;;
58896;SDS011;44677;52.378;10.400;2023-10-09T06:52:52;37.70;;;18.10;;
58896;SDS011;44677;52.378;10.400;2023-10-09T06:55:42;32.30;;;17.30;;
58896;SDS011;44677;52.378;10.400;2023-10-09T06:58:20;38.90;;;18.80;;
58896;SDS011;44677;52.378;10.400;2023-10-09T07:00:52;33.90;;;18.30;;
58896;SDS011;44677;52.378;10.400;2023-10-09T07:03:27;38.80;;;19.10;;
58896;SDS011;44677;52.378;10.400;2023-10-09T07:06:08;37.50;;;19.90;;
58896;SDS011;44677;52.378;10.400;2023-10-09T07:08:57;33.60;;;18.00;;
58896;SDS011;44677;52.378;10.400;2023-10-09T07:11:32;37.70;;;19.50;;
58896;SDS011;44677;52.378;10.400;2023-10-09T07:14:10;37.50;;;18.40;;
58896;SDS011;44677;52.378;10.400;2023-10-09T07:16:55;35.80;;;18.30;;
58896;SDS011;44677;52.378;10.400;2023-10-09T07:19:31;36.00;;;18.30;;
58896;SDS011;44677;52.378;10.400;2023-10-09T07:22:03;34.00;;;17.50;;
58896;SDS011;44677;52.378;10.400;2023-10-09T07:24:57;31.10;;;16.80;;
58896;SDS011;44677;52.378;10.400;2023-10-09T07:27:53;30.90;;;15.30;;
58896;SDS011;44677;52.378;10.400;2023-10-09T07:30:21;30.60;;;15.40;;
58896;SDS011;44677;52.378;10.400;2023-10-09T07:35:31;29.50;;;14.80;;
58896;SDS011;44677;52.378;10.400;2023-10-09T07:38:09;27.50;;;15.40;;
58896;SDS011;44677;52.378;10.400;2023-10-09T07:40:39;30.50;;;14.20;;
58896;SDS011;44677;52.378;10.400;2023-10-09T07:43:25;31.10;;;15.20;;
58896;SDS011;44677;52.378;10.400;2023-10-09T07:45:54;31.20;;;16.00;;
58896;SDS011;44677;52.378;10.400;2023-10-09T07:48:23;31.30;;;16.60;;
58896;SDS011;44677;52.378;10.400;2023-10-09T07:51:04;34.20;;;16.90;;
58896;SDS011;44677;52.378;10.400;2023-10-09T07:53:39;33.20;;;19.10;;
58896;SDS011;44677;52.378;10.400;2023-10-09T07:56:16;32.70;;;17.60;;
58896;SDS011;44677;52.378;10.400;2023-10-09T07:58:49;35.30;;;18.30;;
58896;SDS011;44677;52.378;10.400;2023-10-09T08:01:17;36.20;;;18.30;;
58896;SDS011;44677;52.378;10.400;2023-10-09T08:04:03;33.90;;;18.30;;
58896;SDS011;44677;52.378;10.400;2023-10-09T08:06:37;39.30;;;19.60;;
58896;SDS011;44677;52.378;10.400;2023-10-09T08:09:04;35.70;;;19.40;;
58896;SDS011;44677;52.378;10.400;2023-10-09T08:11:40;38.20;;;18.60;;
58896;SDS011;44677;52.378;10.400;2023-10-09T08:14:09;34.80;;;17.50;;
58896;SDS011;44677;52.378;10.400;2023-10-09T08:16:58;33.40;;;18.50;;
58896;SDS011;44677;52.378;10.400;2023-10-09T08:19:47;34.30;;;18.40;;
58896;SDS011;44677;52.378;10.400;2023-10-09T08:22:24;32.40;;;17.60;;
58896;SDS011;44677;52.378;10.400;2023-10-09T08:27:22;33.10;;;17.60;;
58896;SDS011;44677;52.378;10.400;2023-10-09T08:29:54;30.90;;;17.10;;
58896;SDS011;44677;52.378;10.400;2023-10-09T08:32:39;31.10;;;18.10;;
58896;SDS011;44677;52.378;10.400;2023-10-09T08:35:07;36.00;;;20.80;;
58896;SDS011;44677;52.378;10.400;2023-10-09T08:40:27;37.90;;;20.00;;
58896;SDS011;44677;52.378;10.400;2023-10-09T08:42:56;35.10;;;19.00;;
58896;SDS011;44677;52.378;10.400;2023-10-09T08:45:28;33.40;;;17.60;;
58896;SDS011;44677;52.378;10.400;2023-10-09T08:47:53;31.70;;;19.00;;
58896;SDS011;44677;52.378;10.400;2023-10-09T08:50:20;32.30;;;18.70;;
58896;SDS011;44677;52.378;10.400;2023-10-09T08:52:47;33.20;;;19.50;;
58896;SDS011;44677;52.378;10.400;2023-10-09T08:55:14;33.90;;;17.70;;
58896;SDS011;44677;52.378;10.400;2023-10-09T08:57:42;29.90;;;18.20;;
58896;SDS011;44677;52.378;10.400;2023-10-09T09:00:17;32.60;;;18.30;;
58896;SDS011;44677;52.378;10.400;2023-10-09T09:02:55;34.40;;;19.30;;
58896;SDS011;44677;52.378;10.400;2023-10-09T09:05:23;35.30;;;19.50;;
58896;SDS011;44677;52.378;10.400;2023-10-09T09:07:52;32.20;;;18.70;;
58896;SDS011;44677;52.378;10.400;2023-10-09T09:10:27;31.60;;;18.10;;
58896;SDS011;44677;52.378;10.400;2023-10-09T09:13:04;31.60;;;18.20;;
58896;SDS011;44677;52.378;10.400;2023-10-09T09:15:29;36.20;;;19.40;;
58896;SDS011;44677;52.378;10.400;2023-10-09T09:18:03;32.90;;;19.30;;
58896;SDS011;44677;52.378;10.400;2023-10-09T09:20:31;36.40;;;20.10;;
58896;SDS011;44677;52.378;10.400;2023-10-09T09:23:00;34.00;;;19.30;;
58896;SDS011;44677;52.378;10.400;2023-10-09T09:25:44;36.30;;;18.50;;
58896;SDS011;44677;52.378;10.400;2023-10-09T09:28:11;33.60;;;18.60;;
58896;SDS011;44677;52.378;10.400;2023-10-09T09:30:38;35.90;;;19.60;;
58896;SDS011;44677;52.378;10.400;2023-10-09T09:33:24;31.50;;;18.20;;
58896;SDS011;44677;52.378;10.400;2023-10-09T09:36:08;34.10;;;17.80;;
58896;SDS011;44677;52.378;10.400;2023-10-09T09:38:36;32.40;;;19.50;;
58896;SDS011;44677;52.378;10.400;2023-10-09T09:43:51;36.10;;;18.00;;
58896;SDS011;44677;52.378;10.400;2023-10-09T09:46:35;29.40;;;17.60;;
58896;SDS011;44677;52.378;10.400;2023-10-09T09:49:04;32.60;;;18.10;;
58896;SDS011;44677;52.378;10.400;2023-10-09T09:51:50;32.20;;;17.90;;
58896;SDS011;44677;52.378;10.400;2023-10-09T09:54:16;31.70;;;18.90;;
58896;SDS011;44677;52.378;10.400;2023-10-09T09:56:45;29.00;;;17.60;;
58896;SDS011;44677;52.378;10.400;2023-10-09T09:59:20;34.30;;;17.90;;
58896;SDS011;44677;52.378;10.400;2023-10-09T10:01:55;32.10;;;16.10;;
58896;SDS011;44677;52.378;10.400;2023-10-09T10:04:31;34.70;;;16.20;;
58896;SDS011;44677;52.378;10.400;2023-10-09T10:07:00;28.10;;;15.20;;
58896;SDS011;44677;52.378;10.400;2023-10-09T10:09:40;25.80;;;15.50;;
58896;SDS011;44677;52.378;10.400;2023-10-09T10:12:07;25.90;;;15.10;;
58896;SDS011;44677;52.378;10.400;2023-10-09T10:14:53;25.10;;;14.60;;
58896;SDS011;44677;52.378;10.400;2023-10-09T10:17:24;23.50;;;15.10;;
58896;SDS011;44677;52.378;10.400;2023-10-09T10:19:59;26.00;;;14.90;;
58896;SDS011;44677;52.378;10.400;2023-10-09T10:22:43;23.90;;;15.10;;
58896;SDS011;44677;52.378;10.400;2023-10-09T10:30:56;25.30;;;13.80;;
58896;SDS011;44677;52.378;10.400;2023-10-09T10:33:25;23.10;;;13.90;;
58896;SDS011;44677;52.378;10.400;2023-10-09T10:35:54;25.20;;;14.30;;
58896;SDS011;44677;52.378;10.400;2023-10-09T10:41:10;24.30;;;14.30;;
58896;SDS011;44677;52.378;10.400;2023-10-09T10:43:41;22.20;;;13.40;;
58896;SDS011;44677;52.378;10.400;2023-10-09T10:46:14;21.70;;;12.70;;
58896;SDS011;44677;52.378;10.400;2023-10-09T10:48:49;25.90;;;13.50;;
58896;SDS011;44677;52.378;10.400;2023-10-09T10:51:40;23.80;;;13.70;;
58896;SDS011;44677;52.378;10.400;2023-10-09T10:54:07;20.30;;;13.10;;
58896;SDS011;44677;52.378;10.400;2023-10-09T10:56:54;22.70;;;13.10;;
58896;SDS011;44677;52.378;10.400;2023-10-09T10:59:22;19.90;;;13.40;;
58896;SDS011;44677;52.378;10.400;2023-10-09T11:01:49;23.50;;;13.90;;
58896;SDS011;44677;52.378;10.400;2023-10-09T11:04:45;20.30;;;12.80;;
58896;SDS011;44677;52.378;10.400;2023-10-09T11:07:21;20.90;;;13.70;;
58896;SDS011;44677;52.378;10.400;2023-10-09T11:09:57;20.50;;;12.70;;
58896;SDS011;44677;52.378;10.400;2023-10-09T11:15:08;23.30;;;12.90;;
58896;SDS011;44677;52.378;10.400;2023-10-09T11:18:01;22.80;;;12.90;;
58896;SDS011;44677;52.378;10.400;2023-10-09T11:20:36;23.20;;;13.10;;
58896;SDS011;44677;52.378;10.400;2023-10-09T11:23:19;23.70;;;13.50;;
58896;SDS011;44677;52.378;10.400;2023-10-09T11:25:54;24.10;;;13.90;;
58896;SDS011;44677;52.378;10.400;2023-10-09T11:28:40;24.10;;;13.50;;
58896;SDS011;44677;52.378;10.400;2023-10-09T11:31:14;23.90;;;14.40;;
58896;SDS011;44677;52.378;10.400;2023-10-09T11:33:52;22.20;;;14.60;;
58896;SDS011;44677;52.378;10.400;2023-10-09T11:36:18;22.00;;;13.40;;
58896;SDS011;44677;52.378;10.400;2023-10-09T11:38:54;21.00;;;14.20;;
58896;SDS011;44677;52.378;10.400;2023-10-09T11:41:39;21.10;;;13.00;;
58896;SDS011;44677;52.378;10.400;2023-10-09T11:44:06;21.20;;;14.20;;
58896;SDS011;44677;52.378;10.400;2023-10-09T11:46:32;21.00;;;13.40;;
58896;SDS011;44677;52.378;10.400;2023-10-09T11:49:13;20.90;;;13.70;;
58896;SDS011;44677;52.378;10.400;2023-10-09T11:51:44;20.10;;;13.40;;
58896;SDS011;44677;52.378;10.400;2023-10-09T11:54:30;19.60;;;13.00;;
58896;SDS011;44677;52.378;10.400;2023-10-09T11:57:00;20.00;;;12.80;;
58896;SDS011;44677;52.378;10.400;2023-10-09T11:59:29;17.50;;;13.20;;
58896;SDS011;44677;52.378;10.400;2023-10-09T12:02:09;20.50;;;12.60;;
58896;SDS011;44677;52.378;10.400;2023-10-09T12:04:41;19.50;;;12.50;;
58896;SDS011;44677;52.378;10.400;2023-10-09T12:07:09;19.00;;;13.20;;
58896;SDS011;44677;52.378;10.400;2023-10-09T12:09:38;19.10;;;13.30;;
58896;SDS011;44677;52.378;10.400;2023-10-09T12:12:05;19.60;;;12.70;;
58896;SDS011;44677;52.378;10.400;2023-10-09T12:14:32;20.10;;;13.10;;
58896;SDS011;44677;52.378;10.400;2023-10-09T12:16:59;21.80;;;13.70;;
58896;SDS011;44677;52.378;10.400;2023-10-09T12:19:34;20.10;;;13.90;;
58896;SDS011;44677;52.378;10.400;2023-10-09T12:22:00;20.50;;;13.60;;
58896;SDS011;44677;52.378;10.400;2023-10-09T12:24:29;18.40;;;12.50;;
58896;SDS011;44677;52.378;10.400;2023-10-09T12:26:55;18.70;;;13.10;;
58896;SDS011;44677;52.378;10.400;2023-10-09T12:29:21;19.80;;;13.70;;
58896;SDS011;44677;52.378;10.400;2023-10-09T12:31:48;20.10;;;13.90;;
58896;SDS011;44677;52.378;10.400;2023-10-09T12:34:26;19.90;;;13.60;;
58896;SDS011;44677;52.378;10.400;2023-10-09T12:36:54;18.80;;;14.10;;
58896;SDS011;44677;52.378;10.400;2023-10-09T12:39:20;19.90;;;14.40;;
58896;SDS011;44677;52.378;10.400;2023-10-09T12:41:47;19.50;;;14.20;;
58896;SDS011;44677;52.378;10.400;2023-10-09T12:44:13;22.40;;;14.20;;
58896;SDS011;44677;52.378;10.400;2023-10-09T12:46:47;20.40;;;14.50;;
58896;SDS011;44677;52.378;10.400;2023-10-09T12:49:22;21.70;;;15.10;;
58896;SDS011;44677;52.378;10.400;2023-10-09T12:51:53;20.80;;;15.50;;
58896;SDS011;44677;52.378;10.400;2023-10-09T12:54:19;23.00;;;15.30;;
58896;SDS011;44677;52.378;10.400;2023-10-09T12:56:56;20.20;;;14.70;;
58896;SDS011;44677;52.378;10.400;2023-10-09T12:59:23;19.90;;;16.10;;
58896;SDS011;44677;52.378;10.400;2023-10-09T13:01:49;23.20;;;15.00;;
58896;SDS011;44677;52.378;10.400;2023-10-09T13:04:22;19.50;;;15.10;;
58896;SDS011;44677;52.378;10.400;2023-10-09T13:06:48;20.90;;;15.50;;
58896;SDS011;44677;52.378;10.400;2023-10-09T13:09:19;18.70;;;14.50;;
58896;SDS011;44677;52.378;10.400;2023-10-09T13:11:58;20.10;;;15.00;;
58896;SDS011;44677;52.378;10.400;2023-10-09T13:14:27;19.40;;;13.00;;
58896;SDS011;44677;52.378;10.400;2023-10-09T13:16:58;17.10;;;12.80;;
58896;SDS011;44677;52.378;10.400;2023-10-09T13:19:24;16.40;;;12.90;;
58896;SDS011;44677;52.378;10.400;2023-10-09T13:21:49;18.00;;;13.20;;
58896;SDS011;44677;52.378;10.400;2023-10-09T13:24:15;15.30;;;12.70;;
58896;SDS011;44677;52.378;10.400;2023-10-09T13:26:41;14.80;;;12.50;;
58896;SDS011;44677;52.378;10.400;2023-10-09T13:29:13;16.50;;;12.70;;
58896;SDS011;44677;52.378;10.400;2023-10-09T13:31:39;15.90;;;12.00;;
58896;SDS011;44677;52.378;10.400;2023-10-09T13:34:11;16.10;;;12.20;;
58896;SDS011;44677;52.378;10.400;2023-10-09T13:36:40;15.70;;;12.30;;
58896;SDS011;44677;52.378;10.400;2023-10-09T13:39:18;13.40;;;11.00;;
58896;SDS011;44677;52.378;10.400;2023-10-09T13:42:01;14.90;;;11.20;;
58896;SDS011;44677;52.378;10.400;2023-10-09T13:44:32;16.30;;;11.60;;
58896;SDS011;44677;52.378;10.400;2023-10-09T13:47:06;13.10;;;11.10;;
58896;SDS011;44677;52.378;10.400;2023-10-09T13:49:34;14.50;;;11.80;;
58896;SDS011;44677;52.378;10.400;2023-10-09T13:52:05;15.30;;;11.20;;
58896;SDS011;44677;52.378;10.400;2023-10-09T13:54:32;15.20;;;11.80;;
58896;SDS011;44677;52.378;10.400;2023-10-09T13:56:58;14.30;;;11.60;;
58896;SDS011;44677;52.378;10.400;2023-10-09T13:59:24;15.00;;;11.80;;
58896;SDS011;44677;52.378;10.400;2023-10-09T14:01:53;14.40;;;10.80;;
58896;SDS011;44677;52.378;10.400;2023-10-09T14:04:23;14.00;;;11.70;;
58896;SDS011;44677;52.378;10.400;2023-10-09T14:06:49;15.70;;;12.00;;
58896;SDS011;44677;52.378;10.400;2023-10-09T14:09:22;14.00;;;11.00;;
58896;SDS011;44677;52.378;10.400;2023-10-09T14:11:57;14.70;;;11.60;;
58896;SDS011;44677;52.378;10.400;2023-10-09T14:17:04;13.00;;;11.50;;
58896;SDS011;44677;52.378;10.400;2023-10-09T14:19:37;14.80;;;12.10;;
58896;SDS011;44677;52.378;10.400;2023-10-09T14:22:03;16.70;;;11.90;;
58896;SDS011;44677;52.378;10.400;2023-10-09T14:26:59;13.90;;;10.80;;
58896;SDS011;44677;52.378;10.400;2023-10-09T14:29:28;17.90;;;11.30;;
58896;SDS011;44677;52.378;10.400;2023-10-09T14:31:55;12.50;;;10.60;;
58896;SDS011;44677;52.378;10.400;2023-10-09T14:34:32;12.80;;;10.90;;
58896;SDS011;44677;52.378;10.400;2023-10-09T14:37:01;14.10;;;11.00;;
58896;SDS011;44677;52.378;10.400;2023-10-09T14:39:29;12.40;;;10.90;;
58896;SDS011;44677;52.378;10.400;2023-10-09T14:41:55;13.30;;;10.50;;
58896;SDS011;44677;52.378;10.400;2023-10-09T14:44:22;12.30;;;9.80;;
58896;SDS011;44677;52.378;10.400;2023-10-09T14:46:49;10.90;;;9.70;;
58896;SDS011;44677;52.378;10.400;2023-10-09T14:49:18;11.90;;;10.70;;
58896;SDS011;44677;52.378;10.400;2023-10-09T14:51:47;12.40;;;10.60;;
58896;SDS011;44677;52.378;10.400;2023-10-09T14:54:12;12.80;;;10.00;;
58896;SDS011;44677;52.378;10.400;2023-10-09T14:56:43;11.40;;;10.10;;
58896;SDS011;44677;52.378;10.400;2023-10-09T14:59:10;13.10;;;9.50;;
58896;SDS011;44677;52.378;10.400;2023-10-09T15:01:37;11.30;;;10.10;;
58896;SDS011;44677;52.378;10.400;2023-10-09T15:04:07;12.70;;;10.30;;
58896;SDS011;44677;52.378;10.400;2023-10-09T15:06:37;11.70;;;10.30;;
58896;SDS011;44677;52.378;10.400;2023-10-09T15:09:03;12.40;;;10.80;;
58896;SDS011;44677;52.378;10.400;2023-10-09T15:11:40;9.90;;;8.90;;
58896;SDS011;44677;52.378;10.400;2023-10-09T15:14:08;10.70;;;9.60;;
58896;SDS011;44677;52.378;10.400;2023-10-09T15:16:33;10.90;;;9.70;;
58896;SDS011;44677;52.378;10.400;2023-10-09T15:19:00;10.00;;;9.00;;
58896;SDS011;44677;52.378;10.400;2023-10-09T15:21:33;11.70;;;8.90;;
58896;SDS011;44677;52.378;10.400;2023-10-09T15:24:11;8.30;;;7.40;;
58896;SDS011;44677;52.378;10.400;2023-10-09T15:26:53;8.40;;;7.60;;
58896;SDS011;44677;52.378;10.400;2023-10-09T15:29:26;7.60;;;6.90;;
58896;SDS011;44677;52.378;10.400;2023-10-09T15:31:57;7.60;;;6.90;;